Time,TemperatureF,DewpointF,PressureIn,WindDirection,WindDirectionDegrees,WindSpeedMPH,WindSpeedGustMPH,Humidity,HourlyPrecipIn,Conditions,Clouds,dailyrainin,SolarRadiationWatts/m^2,SoftwareType,DateUTC
2013-02-18 00:00:00,28.6,18.3,30.34,WNW,288,0.0,0.0,65,0.00,,,0.00,0.0,meteohub,2013-02-18 05:00:00,
2013-02-18 00:05:00,28.6,18.3,30.35,WNW,288,0.0,0.0,65,0.00,,,0.00,0.0,meteohub,2013-02-18 05:05:00,
2013-02-18 00:10:00,28.8,18.5,30.35,WNW,288,0.0,0.0,65,0.00,,,0.00,0.0,meteohub,2013-02-18 05:10:00,
2013-02-18 00:15:00,28.6,18.3,30.35,WNW,288,0.0,0.0,65,0.00,,,0.00,0.0,meteohub,2013-02-18 05:15:00,
2013-02-18 00:20:00,28.4,18.5,30.35,WNW,288,0.0,0.0,66,0.00,,,0.00,0.0,meteohub,2013-02-18 05:20:00,
2013-02-18 00:25:00,28.4,18.5,30.35,WNW,288,0.0,0.0,66,0.00,,,0.00,0.0,meteohub,2013-02-18 05:25:00,
2013-02-18 00:30:00,28.6,18.7,30.35,WNW,288,0.0,0.0,66,0.00,,,0.00,0.0,meteohub,2013-02-18 05:30:00,
2013-02-18 00:35:00,28.4,18.5,30.35,WNW,288,0.0,0.0,66,0.00,,,0.00,0.0,meteohub,2013-02-18 05:35:00,
2013-02-18 00:40:00,28.4,18.9,30.35,WNW,288,0.0,0.0,67,0.00,,,0.00,0.0,meteohub,2013-02-18 05:40:00,
2013-02-18 00:45:00,28.6,19.0,30.35,WNW,288,0.0,0.0,67,0.00,,,0.00,0.0,meteohub,2013-02-18 05:45:00,
2013-02-18 00:50:00,28.6,19.0,30.35,WNW,288,0.0,0.0,67,0.00,,,0.00,0.0,meteohub,2013-02-18 05:50:00,
2013-02-18 00:55:00,28.4,19.2,30.35,WNW,288,0.0,0.0,68,0.00,,,0.00,0.0,meteohub,2013-02-18 05:55:00,
2013-02-18 01:00:00,28.2,19.0,30.35,WNW,288,0.0,0.0,68,0.00,,,0.00,0.0,meteohub,2013-02-18 06:00:00,
2013-02-18 01:05:00,28.0,18.9,30.35,WNW,288,0.0,0.0,68,0.00,,,0.00,0.0,meteohub,2013-02-18 06:05:00,
2013-02-18 01:10:00,27.9,18.7,30.35,WNW,288,0.0,0.0,68,0.00,,,0.00,0.0,meteohub,2013-02-18 06:10:00,
2013-02-18 01:15:00,27.9,18.7,30.35,WNW,288,0.0,0.0,68,0.00,,,0.00,0.0,meteohub,2013-02-18 06:15:00,
2013-02-18 01:20:00,27.9,18.7,30.35,WNW,288,0.0,0.0,68,0.00,,,0.00,0.0,meteohub,2013-02-18 06:20:00,
2013-02-18 01:25:00,27.7,18.9,30.35,WNW,288,0.0,0.0,69,0.00,,,0.00,0.0,meteohub,2013-02-18 06:25:00,
2013-02-18 01:30:00,27.7,18.9,30.35,WNW,288,0.0,0.0,69,0.00,,,0.00,0.0,meteohub,2013-02-18 06:30:00,
2013-02-18 01:35:00,27.7,18.9,30.35,WNW,288,0.0,0.0,69,0.00,,,0.00,0.0,meteohub,2013-02-18 06:35:00,
2013-02-18 01:40:00,27.7,18.9,30.35,WNW,288,0.0,0.0,69,0.00,,,0.00,0.0,meteohub,2013-02-18 06:40:00,
2013-02-18 01:45:00,27.7,18.9,30.35,WNW,288,0.0,0.0,69,0.00,,,0.00,0.0,meteohub,2013-02-18 06:45:00,
2013-02-18 01:50:00,27.5,18.7,30.35,WNW,288,0.0,0.0,69,0.00,,,0.00,0.0,meteohub,2013-02-18 06:50:00,
2013-02-18 01:55:00,27.5,19.0,30.35,WNW,288,0.0,0.0,70,0.00,,,0.00,0.0,meteohub,2013-02-18 06:55:00,
2013-02-18 02:00:00,27.3,18.9,30.35,WNW,288,0.0,0.0,70,0.00,,,0.00,0.0,meteohub,2013-02-18 07:00:00,
2013-02-18 02:05:00,27.1,18.7,30.35,WNW,288,0.0,0.0,70,0.00,,,0.00,0.0,meteohub,2013-02-18 07:05:00,
2013-02-18 02:10:00,27.5,19.0,30.35,WNW,288,0.0,0.0,70,0.00,,,0.00,0.0,meteohub,2013-02-18 07:10:00,
2013-02-18 02:15:00,27.5,19.4,30.35,WNW,288,0.0,0.0,71,0.00,,,0.00,0.0,meteohub,2013-02-18 07:15:00,
2013-02-18 02:20:00,27.1,19.0,30.35,WNW,288,0.0,0.0,71,0.00,,,0.00,0.0,meteohub,2013-02-18 07:20:00,
2013-02-18 02:25:00,27.1,19.0,30.34,WNW,288,0.0,0.0,71,0.00,,,0.00,0.0,meteohub,2013-02-18 07:25:00,
2013-02-18 02:31:00,27.0,18.9,30.34,WNW,288,0.0,0.0,71,0.00,,,0.00,0.0,meteohub,2013-02-18 07:31:00,
2013-02-18 02:35:00,27.0,18.9,30.34,WNW,288,0.0,0.0,71,0.00,,,0.00,0.0,meteohub,2013-02-18 07:35:00,
2013-02-18 02:40:00,26.8,18.7,30.34,WNW,288,0.0,0.0,71,0.00,,,0.00,0.0,meteohub,2013-02-18 07:40:00,
2013-02-18 02:45:00,26.8,18.7,30.34,WNW,288,0.0,0.0,71,0.00,,,0.00,0.0,meteohub,2013-02-18 07:45:00,
2013-02-18 02:50:00,26.8,19.0,30.34,WNW,288,0.0,0.0,72,0.00,,,0.00,0.0,meteohub,2013-02-18 07:50:00,
2013-02-18 02:56:00,26.6,18.9,30.34,WNW,288,0.0,0.0,72,0.00,,,0.00,0.0,meteohub,2013-02-18 07:56:00,
2013-02-18 03:01:00,26.8,19.0,30.34,WNW,288,0.0,0.0,72,0.00,,,0.00,0.0,meteohub,2013-02-18 08:01:00,
2013-02-18 03:06:00,26.8,19.0,30.34,WNW,288,0.0,0.0,72,0.00,,,0.00,0.0,meteohub,2013-02-18 08:06:00,
2013-02-18 03:11:00,26.8,19.0,30.34,WNW,288,0.0,0.0,72,0.00,,,0.00,0.0,meteohub,2013-02-18 08:11:00,
2013-02-18 03:16:00,26.8,19.0,30.34,WNW,288,0.0,0.0,72,0.00,,,0.00,0.0,meteohub,2013-02-18 08:16:00,
2013-02-18 03:21:00,26.8,19.2,30.34,WNW,288,0.0,0.0,73,0.00,,,0.00,0.0,meteohub,2013-02-18 08:21:00,
2013-02-18 03:26:00,26.8,19.2,30.34,WNW,288,0.0,0.0,73,0.00,,,0.00,0.0,meteohub,2013-02-18 08:26:00,
2013-02-18 03:31:00,26.8,19.2,30.34,WNW,288,0.0,0.0,73,0.00,,,0.00,0.0,meteohub,2013-02-18 08:31:00,
2013-02-18 03:36:00,26.8,19.2,30.34,WNW,288,0.0,0.0,73,0.00,,,0.00,0.0,meteohub,2013-02-18 08:36:00,
2013-02-18 03:41:00,26.8,19.2,30.34,WNW,288,0.0,0.0,73,0.00,,,0.00,0.0,meteohub,2013-02-18 08:41:00,
2013-02-18 03:46:00,26.8,19.6,30.34,WNW,288,0.0,0.0,74,0.00,,,0.00,0.0,meteohub,2013-02-18 08:46:00,
2013-02-18 03:51:00,26.8,19.6,30.34,WNW,288,0.0,0.0,74,0.00,,,0.00,0.0,meteohub,2013-02-18 08:51:00,
2013-02-18 03:56:00,26.4,19.2,30.34,WNW,288,0.0,0.0,74,0.00,,,0.00,0.0,meteohub,2013-02-18 08:56:00,
2013-02-18 04:01:00,26.4,19.2,30.34,WNW,288,0.0,0.0,74,0.00,,,0.00,0.0,meteohub,2013-02-18 09:01:00,
2013-02-18 04:06:00,26.2,19.0,30.34,WNW,288,0.0,0.0,74,0.00,,,0.00,0.0,meteohub,2013-02-18 09:06:00,
2013-02-18 04:11:00,26.2,19.4,30.34,WNW,288,0.0,0.0,75,0.00,,,0.00,0.0,meteohub,2013-02-18 09:11:00,
2013-02-18 04:16:00,26.2,19.4,30.34,WNW,288,0.0,0.0,75,0.00,,,0.00,0.0,meteohub,2013-02-18 09:16:00,
2013-02-18 04:21:00,26.2,19.4,30.34,WNW,288,0.0,0.0,75,0.00,,,0.00,0.0,meteohub,2013-02-18 09:21:00,
2013-02-18 04:26:00,26.4,19.6,30.34,WNW,288,0.0,0.0,75,0.00,,,0.00,0.0,meteohub,2013-02-18 09:26:00,
2013-02-18 04:31:00,26.4,19.6,30.34,WNW,288,0.0,0.0,75,0.00,,,0.00,0.0,meteohub,2013-02-18 09:31:00,
2013-02-18 04:36:00,26.4,19.6,30.35,WNW,288,0.0,0.0,75,0.00,,,0.00,0.0,meteohub,2013-02-18 09:36:00,
2013-02-18 04:41:00,26.4,19.6,30.34,WNW,288,0.0,0.0,75,0.00,,,0.00,0.0,meteohub,2013-02-18 09:41:00,
2013-02-18 04:46:00,26.2,19.8,30.34,WNW,288,0.0,0.0,76,0.00,,,0.00,0.0,meteohub,2013-02-18 09:46:00,
2013-02-18 04:51:00,26.1,19.6,30.35,WNW,288,0.0,0.0,76,0.00,,,0.00,0.0,meteohub,2013-02-18 09:51:00,
2013-02-18 04:56:00,26.1,19.6,30.34,WNW,288,0.0,1.0,76,0.00,,,0.00,0.0,meteohub,2013-02-18 09:56:00,
2013-02-18 05:01:00,26.1,19.6,30.35,WNW,288,0.0,1.0,76,0.00,,,0.00,0.0,meteohub,2013-02-18 10:01:00,
2013-02-18 05:06:00,26.1,19.6,30.35,WNW,288,0.0,1.0,76,0.00,,,0.00,0.0,meteohub,2013-02-18 10:06:00,
2013-02-18 05:11:00,26.1,19.6,30.35,WNW,288,0.0,0.0,76,0.00,,,0.00,0.0,meteohub,2013-02-18 10:11:00,
2013-02-18 05:16:00,26.1,19.8,30.35,WNW,288,0.0,0.0,77,0.00,,,0.00,0.0,meteohub,2013-02-18 10:16:00,
2013-02-18 05:21:00,26.1,19.8,30.35,WNW,288,0.0,0.0,77,0.00,,,0.00,0.0,meteohub,2013-02-18 10:21:00,
2013-02-18 05:26:00,26.1,19.8,30.36,WNW,288,0.0,0.0,77,0.00,,,0.00,0.0,meteohub,2013-02-18 10:26:00,
2013-02-18 05:31:00,25.9,19.8,30.36,WNW,288,0.0,0.0,77,0.00,,,0.00,0.0,meteohub,2013-02-18 10:31:00,
2013-02-18 05:36:00,25.7,19.6,30.36,WNW,288,0.0,0.0,77,0.00,,,0.00,0.0,meteohub,2013-02-18 10:36:00,
2013-02-18 05:41:00,25.5,19.4,30.36,WNW,288,0.0,0.0,77,0.00,,,0.00,0.0,meteohub,2013-02-18 10:41:00,
2013-02-18 05:47:00,25.5,19.4,30.36,WNW,288,0.0,0.0,77,0.00,,,0.00,0.0,meteohub,2013-02-18 10:47:00,
2013-02-18 05:52:00,25.5,19.6,30.37,WNW,288,0.0,0.0,78,0.00,,,0.00,0.0,meteohub,2013-02-18 10:52:00,
2013-02-18 05:57:00,25.7,19.8,30.37,WNW,288,0.0,0.0,78,0.00,,,0.00,0.0,meteohub,2013-02-18 10:57:00,
2013-02-18 06:02:00,25.5,19.6,30.37,WNW,288,0.0,0.0,78,0.00,,,0.00,0.0,meteohub,2013-02-18 11:02:00,
2013-02-18 06:07:00,25.3,19.4,30.37,WNW,288,0.0,0.0,78,0.00,,,0.00,0.0,meteohub,2013-02-18 11:07:00,
2013-02-18 06:12:00,25.5,19.6,30.37,WNW,288,0.0,0.0,78,0.00,,,0.00,0.0,meteohub,2013-02-18 11:12:00,
2013-02-18 06:17:00,25.5,19.6,30.37,WNW,288,0.0,0.0,78,0.00,,,0.00,0.0,meteohub,2013-02-18 11:17:00,
2013-02-18 06:22:00,25.5,19.6,30.38,WNW,288,0.0,0.0,78,0.00,,,0.00,0.0,meteohub,2013-02-18 11:22:00,
2013-02-18 06:27:00,25.5,19.6,30.38,WNW,288,0.0,0.0,78,0.00,,,0.00,0.0,meteohub,2013-02-18 11:27:00,
2013-02-18 06:32:00,25.5,19.6,30.38,WNW,288,0.0,0.0,78,0.00,,,0.00,0.0,meteohub,2013-02-18 11:32:00,
2013-02-18 06:37:00,25.3,19.4,30.38,WNW,288,0.0,0.0,78,0.00,,,0.00,0.0,meteohub,2013-02-18 11:37:00,
2013-02-18 06:42:00,25.3,19.8,30.38,WNW,288,0.0,0.0,79,0.00,,,0.00,0.0,meteohub,2013-02-18 11:42:00,
2013-02-18 06:47:00,25.3,19.8,30.38,WNW,288,0.0,0.0,79,0.00,,,0.00,0.0,meteohub,2013-02-18 11:47:00,
2013-02-18 06:52:00,25.3,19.8,30.38,WNW,288,0.0,0.0,79,0.00,,,0.00,0.0,meteohub,2013-02-18 11:52:00,
2013-02-18 06:57:00,25.2,19.6,30.38,WNW,288,0.0,0.0,79,0.00,,,0.00,0.0,meteohub,2013-02-18 11:57:00,
2013-02-18 07:02:00,25.2,19.6,30.38,WNW,288,0.0,0.0,79,0.00,,,0.00,0.0,meteohub,2013-02-18 12:02:00,
2013-02-18 07:07:00,25.2,19.6,30.38,WNW,288,0.0,0.0,79,0.00,,,0.00,5.0,meteohub,2013-02-18 12:07:00,
2013-02-18 07:12:00,25.2,19.6,30.38,WNW,288,0.0,0.0,79,0.00,,,0.00,9.0,meteohub,2013-02-18 12:12:00,
2013-02-18 07:17:00,25.0,19.4,30.38,WNW,288,0.0,0.0,79,0.00,,,0.00,11.0,meteohub,2013-02-18 12:17:00,
2013-02-18 07:22:00,24.8,19.2,30.38,WNW,288,0.0,0.0,79,0.00,,,0.00,12.0,meteohub,2013-02-18 12:22:00,
2013-02-18 07:28:00,24.8,19.6,30.38,WNW,288,0.0,0.0,80,0.00,,,0.00,16.0,meteohub,2013-02-18 12:28:00,
2013-02-18 07:33:00,25.0,19.8,30.38,WNW,288,0.0,0.0,80,0.00,,,0.00,23.0,meteohub,2013-02-18 12:33:00,
2013-02-18 07:38:00,25.0,19.8,30.38,WNW,288,0.0,0.0,80,0.00,,,0.00,32.0,meteohub,2013-02-18 12:38:00,
2013-02-18 07:43:00,25.2,19.9,30.38,WNW,288,0.0,0.0,80,0.00,,,0.00,32.0,meteohub,2013-02-18 12:43:00,
2013-02-18 07:48:00,25.3,20.1,30.38,WNW,288,0.0,0.0,80,0.00,,,0.00,56.0,meteohub,2013-02-18 12:48:00,
2013-02-18 07:53:00,25.9,20.5,30.38,WNW,288,0.0,0.0,80,0.00,,,0.00,100.0,meteohub,2013-02-18 12:53:00,
2013-02-18 07:58:00,26.4,21.0,30.38,WNW,288,0.0,0.0,80,0.00,,,0.00,193.0,meteohub,2013-02-18 12:58:00,
2013-02-18 08:03:00,27.5,22.1,30.39,WNW,288,0.0,0.0,80,0.00,,,0.00,163.0,meteohub,2013-02-18 13:03:00,
2013-02-18 08:08:00,28.8,23.4,30.39,WNW,288,0.0,0.0,80,0.00,,,0.00,174.0,meteohub,2013-02-18 13:08:00,
2013-02-18 08:13:00,29.7,24.3,30.39,WNW,288,0.0,0.0,80,0.00,,,0.00,190.0,meteohub,2013-02-18 13:13:00,
2013-02-18 08:18:00,30.4,25.3,30.39,WNW,288,0.0,0.0,81,0.00,,,0.00,206.0,meteohub,2013-02-18 13:18:00,
2013-02-18 08:23:00,31.5,26.2,30.39,WNW,288,0.0,0.0,81,0.00,,,0.00,223.0,meteohub,2013-02-18 13:23:00,
2013-02-18 08:28:00,32.5,27.3,30.39,WNW,288,0.0,0.0,81,0.00,,,0.00,243.0,meteohub,2013-02-18 13:28:00,
2013-02-18 08:33:00,34.0,28.8,30.40,WNW,288,0.0,0.0,81,0.00,,,0.00,265.0,meteohub,2013-02-18 13:33:00,
2013-02-18 08:38:00,35.1,29.8,30.40,WNW,288,0.0,0.0,81,0.00,,,0.00,290.0,meteohub,2013-02-18 13:38:00,
2013-02-18 08:43:00,36.3,31.1,30.40,WNW,288,0.0,0.0,81,0.00,,,0.00,313.0,meteohub,2013-02-18 13:43:00,
2013-02-18 08:48:00,37.6,32.4,30.40,WNW,288,0.0,0.0,81,0.00,,,0.00,338.0,meteohub,2013-02-18 13:48:00,
2013-02-18 08:53:00,38.8,33.4,30.40,WNW,288,0.0,0.0,81,0.00,,,0.00,357.0,meteohub,2013-02-18 13:53:00,
2013-02-18 08:58:00,40.1,34.7,30.40,WNW,288,0.0,0.0,81,0.00,,,0.00,376.0,meteohub,2013-02-18 13:58:00,
2013-02-18 09:03:00,41.4,35.6,30.40,WNW,288,0.0,0.0,80,0.00,,,0.00,392.0,meteohub,2013-02-18 14:03:00,
2013-02-18 09:08:00,42.4,36.7,30.40,WNW,288,0.0,0.0,80,0.00,,,0.00,411.0,meteohub,2013-02-18 14:08:00,
2013-02-18 09:13:00,43.5,37.4,30.40,WNW,288,0.0,0.0,79,0.00,,,0.00,429.0,meteohub,2013-02-18 14:13:00,
2013-02-18 09:18:00,44.1,37.6,30.40,WNW,288,0.0,0.0,78,0.00,,,0.00,445.0,meteohub,2013-02-18 14:18:00,
2013-02-18 09:23:00,44.8,37.8,30.40,WNW,288,0.0,0.0,76,0.00,,,0.00,461.0,meteohub,2013-02-18 14:23:00,
2013-02-18 09:28:00,45.7,38.3,30.40,WNW,288,0.0,1.0,75,0.00,,,0.00,476.0,meteohub,2013-02-18 14:28:00,
2013-02-18 09:33:00,46.6,38.7,30.41,WNW,288,0.0,1.0,74,0.00,,,0.00,494.0,meteohub,2013-02-18 14:33:00,
2013-02-18 09:38:00,47.1,38.5,30.41,WNW,288,0.0,1.0,72,0.00,,,0.00,512.0,meteohub,2013-02-18 14:38:00,
2013-02-18 09:43:00,48.0,39.0,30.41,WNW,288,0.0,1.0,71,0.00,,,0.00,527.0,meteohub,2013-02-18 14:43:00,
2013-02-18 09:48:00,48.2,38.5,30.41,North,11,2.0,2.0,69,0.00,,,0.00,543.0,meteohub,2013-02-18 14:48:00,
2013-02-18 09:53:00,47.8,37.4,30.41,NNW,338,1.0,3.0,67,0.00,,,0.00,555.0,meteohub,2013-02-18 14:53:00,
2013-02-18 09:58:00,47.8,36.7,30.41,NNE,31,0.0,5.0,65,0.00,,,0.00,568.0,meteohub,2013-02-18 14:58:00,
2013-02-18 10:03:00,48.2,36.7,30.41,NE,49,2.0,5.0,64,0.00,,,0.00,582.0,meteohub,2013-02-18 15:03:00,
2013-02-18 10:08:00,48.4,36.3,30.41,NNE,24,0.0,5.0,63,0.00,,,0.00,596.0,meteohub,2013-02-18 15:08:00,
2013-02-18 10:13:00,48.7,36.0,30.41,NNE,23,3.0,6.0,61,0.00,,,0.00,612.0,meteohub,2013-02-18 15:13:00,
2013-02-18 10:18:00,48.9,35.6,30.42,ENE,59,3.0,6.0,60,0.00,,,0.00,624.0,meteohub,2013-02-18 15:18:00,
2013-02-18 10:23:00,49.5,36.1,30.42,NE,44,0.0,6.0,60,0.00,,,0.00,638.0,meteohub,2013-02-18 15:23:00,
2013-02-18 10:28:00,49.8,36.1,30.42,North,5,2.0,6.0,59,0.00,,,0.00,649.0,meteohub,2013-02-18 15:28:00,
2013-02-18 10:34:00,50.0,35.4,30.42,ENE,60,1.0,6.0,57,0.00,,,0.00,661.0,meteohub,2013-02-18 15:34:00,
2013-02-18 10:39:00,50.2,35.6,30.43,NE,39,5.0,8.0,57,0.00,,,0.00,671.0,meteohub,2013-02-18 15:39:00,
2013-02-18 10:44:00,50.4,34.9,30.43,East,80,2.0,8.0,55,0.00,,,0.00,684.0,meteohub,2013-02-18 15:44:00,
2013-02-18 10:49:00,50.7,35.6,30.42,East,89,0.0,8.0,56,0.00,,,0.00,694.0,meteohub,2013-02-18 15:49:00,
2013-02-18 10:54:00,51.3,35.6,30.42,South,187,2.0,10.0,55,0.00,,,0.00,703.0,meteohub,2013-02-18 15:54:00,
2013-02-18 10:59:00,51.8,36.1,30.42,South,173,1.0,10.0,55,0.00,,,0.00,714.0,meteohub,2013-02-18 15:59:00,
2013-02-18 11:04:00,52.5,36.3,30.42,NE,52,0.0,8.0,54,0.00,,,0.00,710.0,meteohub,2013-02-18 16:04:00,
2013-02-18 11:09:00,52.3,36.1,30.42,SSE,149,0.0,7.0,54,0.00,,,0.00,733.0,meteohub,2013-02-18 16:09:00,
2013-02-18 11:14:00,52.5,35.4,30.43,ENE,61,4.0,9.0,52,0.00,,,0.00,740.0,meteohub,2013-02-18 16:14:00,
2013-02-18 11:19:00,52.7,35.6,30.43,NNE,17,9.0,9.0,52,0.00,,,0.00,751.0,meteohub,2013-02-18 16:19:00,
2013-02-18 11:24:00,52.0,34.3,30.43,NE,47,1.0,9.0,51,0.00,,,0.00,765.0,meteohub,2013-02-18 16:24:00,
2013-02-18 11:29:00,52.2,35.1,30.43,East,90,0.0,9.0,52,0.00,,,0.00,772.0,meteohub,2013-02-18 16:29:00,
2013-02-18 11:34:00,52.5,34.9,30.43,ENE,61,0.0,9.0,51,0.00,,,0.00,765.0,meteohub,2013-02-18 16:34:00,
2013-02-18 11:39:00,52.3,34.2,30.43,East,79,6.0,8.0,50,0.00,,,0.00,782.0,meteohub,2013-02-18 16:39:00,
2013-02-18 11:44:00,52.3,33.8,30.43,ESE,122,4.0,6.0,49,0.00,,,0.00,803.0,meteohub,2013-02-18 16:44:00,
2013-02-18 11:49:00,52.9,34.2,30.43,NE,43,5.0,11.0,49,0.00,,,0.00,807.0,meteohub,2013-02-18 16:49:00,
2013-02-18 11:54:00,52.7,33.1,30.43,ENE,59,5.0,11.0,47,0.00,,,0.00,782.0,meteohub,2013-02-18 16:54:00,
2013-02-18 11:59:00,52.9,33.8,30.43,ESE,115,3.0,9.0,48,0.00,,,0.00,816.0,meteohub,2013-02-18 16:59:00,
2013-02-18 12:04:00,53.2,34.0,30.42,East,95,2.0,10.0,48,0.00,,,0.00,793.0,meteohub,2013-02-18 17:04:00,
2013-02-18 12:09:00,53.4,33.6,30.42,ENE,69,1.0,10.0,47,0.00,,,0.00,812.0,meteohub,2013-02-18 17:09:00,
2013-02-18 12:15:00,53.4,33.6,30.41,East,94,0.0,10.0,47,0.00,,,0.00,819.0,meteohub,2013-02-18 17:15:00,
2013-02-18 12:20:00,52.9,33.3,30.41,NE,37,2.0,11.0,47,0.00,,,0.00,819.0,meteohub,2013-02-18 17:20:00,
2013-02-18 12:25:00,53.1,33.4,30.41,East,90,9.0,14.0,47,0.00,,,0.00,833.0,meteohub,2013-02-18 17:25:00,
2013-02-18 12:30:00,52.7,33.1,30.40,SSW,194,3.0,14.0,47,0.00,,,0.00,817.0,meteohub,2013-02-18 17:30:00,
2013-02-18 12:35:00,53.2,33.4,30.40,East,100,1.0,13.0,47,0.00,,,0.00,823.0,meteohub,2013-02-18 17:35:00,
2013-02-18 12:40:00,53.8,34.0,30.40,ENE,72,0.0,11.0,47,0.00,,,0.00,828.0,meteohub,2013-02-18 17:40:00,
2013-02-18 12:45:00,54.1,34.3,30.40,ESE,121,1.0,8.0,47,0.00,,,0.00,798.0,meteohub,2013-02-18 17:45:00,
2013-02-18 12:50:00,53.6,33.8,30.39,East,101,5.0,12.0,47,0.00,,,0.00,777.0,meteohub,2013-02-18 17:50:00,
2013-02-18 12:55:00,53.4,33.6,30.39,South,169,3.0,13.0,47,0.00,,,0.00,844.0,meteohub,2013-02-18 17:55:00,
2013-02-18 13:00:00,54.0,34.2,30.38,SE,132,1.0,13.0,47,0.00,,,0.00,793.0,meteohub,2013-02-18 18:00:00,
2013-02-18 13:05:00,54.0,34.2,30.38,ESE,105,2.0,13.0,47,0.00,,,0.00,823.0,meteohub,2013-02-18 18:05:00,
2013-02-18 13:10:00,53.6,33.8,30.38,ESE,122,8.0,12.0,47,0.00,,,0.00,775.0,meteohub,2013-02-18 18:10:00,
2013-02-18 13:15:00,53.6,33.8,30.38,South,187,2.0,12.0,47,0.00,,,0.00,763.0,meteohub,2013-02-18 18:15:00,
2013-02-18 13:21:00,54.0,34.2,30.38,ESE,118,0.0,10.0,47,0.00,,,0.00,853.0,meteohub,2013-02-18 18:21:00,
2013-02-18 13:26:00,53.8,34.0,30.37,ESE,109,10.0,15.0,47,0.00,,,0.00,856.0,meteohub,2013-02-18 18:26:00,
2013-02-18 13:31:00,54.0,34.2,30.37,South,190,0.0,15.0,47,0.00,,,0.00,696.0,meteohub,2013-02-18 18:31:00,
2013-02-18 13:36:00,54.1,34.3,30.36,ESE,109,5.0,15.0,47,0.00,,,0.00,812.0,meteohub,2013-02-18 18:36:00,
2013-02-18 13:41:00,54.0,34.2,30.37,SE,132,4.0,11.0,47,0.00,,,0.00,759.0,meteohub,2013-02-18 18:41:00,
2013-02-18 13:46:00,53.4,33.6,30.36,NE,44,5.0,10.0,47,0.00,,,0.00,737.0,meteohub,2013-02-18 18:46:00,
2013-02-18 13:51:00,53.4,34.2,30.36,SE,132,0.0,10.0,48,0.00,,,0.00,752.0,meteohub,2013-02-18 18:51:00,
2013-02-18 13:56:00,53.8,34.0,30.36,ESE,115,4.0,11.0,47,0.00,,,0.00,766.0,meteohub,2013-02-18 18:56:00,
2013-02-18 14:01:00,54.0,34.2,30.36,ESE,113,0.0,11.0,47,0.00,,,0.00,763.0,meteohub,2013-02-18 19:01:00,
2013-02-18 14:06:00,54.0,34.2,30.36,ESE,113,12.0,12.0,47,0.00,,,0.00,754.0,meteohub,2013-02-18 19:06:00,
2013-02-18 14:11:00,53.2,33.4,30.35,ENE,58,3.0,14.0,47,0.00,,,0.00,729.0,meteohub,2013-02-18 19:11:00,
2013-02-18 14:16:00,53.8,34.0,30.35,ENE,67,2.0,14.0,47,0.00,,,0.00,717.0,meteohub,2013-02-18 19:16:00,
2013-02-18 14:21:00,53.6,33.8,30.35,ENE,63,5.0,13.0,47,0.00,,,0.00,700.0,meteohub,2013-02-18 19:21:00,
2013-02-18 14:26:00,53.8,34.5,30.35,SSE,152,2.0,11.0,48,0.00,,,0.00,703.0,meteohub,2013-02-18 19:26:00,
2013-02-18 14:31:00,54.0,34.7,30.35,SSE,157,0.0,11.0,48,0.00,,,0.00,700.0,meteohub,2013-02-18 19:31:00,
2013-02-18 14:36:00,54.1,34.3,30.35,ESE,123,4.0,10.0,47,0.00,,,0.00,691.0,meteohub,2013-02-18 19:36:00,
2013-02-18 14:41:00,54.0,34.7,30.35,SSE,154,3.0,10.0,48,0.00,,,0.00,679.0,meteohub,2013-02-18 19:41:00,
2013-02-18 14:46:00,54.3,35.1,30.35,East,80,5.0,13.0,48,0.00,,,0.00,663.0,meteohub,2013-02-18 19:46:00,
2013-02-18 14:51:00,54.1,34.3,30.35,NE,41,7.0,13.0,47,0.00,,,0.00,650.0,meteohub,2013-02-18 19:51:00,
2013-02-18 14:56:00,53.8,34.5,30.35,ESE,119,3.0,12.0,48,0.00,,,0.00,642.0,meteohub,2013-02-18 19:56:00,
2013-02-18 15:01:00,54.0,34.7,30.35,East,80,6.0,12.0,48,0.00,,,0.00,624.0,meteohub,2013-02-18 20:01:00,
2013-02-18 15:06:00,54.0,34.7,30.35,SSE,162,3.0,12.0,48,0.00,,,0.00,592.0,meteohub,2013-02-18 20:06:00,
2013-02-18 15:11:00,54.3,35.1,30.35,ESE,102,1.0,10.0,48,0.00,,,0.00,599.0,meteohub,2013-02-18 20:11:00,
2013-02-18 15:17:00,54.3,35.1,30.35,ENE,63,3.0,10.0,48,0.00,,,0.00,589.0,meteohub,2013-02-18 20:17:00,
2013-02-18 15:22:00,54.7,35.4,30.34,ESE,107,4.0,10.0,48,0.00,,,0.00,577.0,meteohub,2013-02-18 20:22:00,
2013-02-18 15:27:00,54.1,34.9,30.35,ESE,112,1.0,13.0,48,0.00,,,0.00,531.0,meteohub,2013-02-18 20:27:00,
2013-02-18 15:32:00,54.3,35.1,30.34,ESE,120,0.0,13.0,48,0.00,,,0.00,552.0,meteohub,2013-02-18 20:32:00,
2013-02-18 15:37:00,54.7,35.4,30.35,ESE,117,5.0,13.0,48,0.00,,,0.00,531.0,meteohub,2013-02-18 20:37:00,
2013-02-18 15:42:00,54.3,35.1,30.35,SE,145,1.0,9.0,48,0.00,,,0.00,520.0,meteohub,2013-02-18 20:42:00,
2013-02-18 15:47:00,54.1,34.9,30.35,South,175,2.0,9.0,48,0.00,,,0.00,482.0,meteohub,2013-02-18 20:47:00,
2013-02-18 15:52:00,54.7,35.4,30.34,SE,125,1.0,9.0,48,0.00,,,0.00,480.0,meteohub,2013-02-18 20:52:00,
2013-02-18 15:57:00,54.9,35.6,30.34,ESE,115,2.0,9.0,48,0.00,,,0.00,464.0,meteohub,2013-02-18 20:57:00,
2013-02-18 16:02:00,54.7,35.4,30.34,ENE,59,1.0,9.0,48,0.00,,,0.00,445.0,meteohub,2013-02-18 21:02:00,
2013-02-18 16:07:00,54.7,35.4,30.34,SSE,155,2.0,9.0,48,0.00,,,0.00,427.0,meteohub,2013-02-18 21:07:00,
2013-02-18 16:12:00,54.5,35.8,30.34,SE,135,0.0,7.0,49,0.00,,,0.00,410.0,meteohub,2013-02-18 21:12:00,
2013-02-18 16:17:00,54.3,35.1,30.34,ESE,114,2.0,7.0,48,0.00,,,0.00,392.0,meteohub,2013-02-18 21:17:00,
2013-02-18 16:22:00,54.1,35.4,30.34,ENE,74,4.0,9.0,49,0.00,,,0.00,378.0,meteohub,2013-02-18 21:22:00,
2013-02-18 16:27:00,54.0,35.2,30.34,ENE,60,2.0,9.0,49,0.00,,,0.00,360.0,meteohub,2013-02-18 21:27:00,
2013-02-18 16:32:00,53.6,34.9,30.34,ESE,105,3.0,10.0,49,0.00,,,0.00,348.0,meteohub,2013-02-18 21:32:00,
2013-02-18 16:37:00,53.4,34.7,30.33,SSE,152,4.0,10.0,49,0.00,,,0.00,330.0,meteohub,2013-02-18 21:37:00,
2013-02-18 16:42:00,53.6,34.9,30.33,East,96,6.0,10.0,49,0.00,,,0.00,264.0,meteohub,2013-02-18 21:42:00,
2013-02-18 16:47:00,53.4,35.2,30.33,ENE,64,0.0,9.0,50,0.00,,,0.00,160.0,meteohub,2013-02-18 21:47:00,
2013-02-18 16:52:00,53.2,35.1,30.33,East,99,2.0,8.0,50,0.00,,,0.00,230.0,meteohub,2013-02-18 21:52:00,
2013-02-18 16:57:00,53.2,35.1,30.33,SE,130,3.0,8.0,50,0.00,,,0.00,207.0,meteohub,2013-02-18 21:57:00,
2013-02-18 17:02:00,53.1,34.9,30.33,ENE,78,3.0,7.0,50,0.00,,,0.00,76.0,meteohub,2013-02-18 22:02:00,
2013-02-18 17:07:00,52.9,34.7,30.33,SE,130,3.0,8.0,50,0.00,,,0.00,225.0,meteohub,2013-02-18 22:07:00,
2013-02-18 17:12:00,52.7,34.5,30.33,SE,145,4.0,8.0,50,0.00,,,0.00,172.0,meteohub,2013-02-18 22:12:00,
2013-02-18 17:17:00,52.7,35.1,30.33,East,94,3.0,8.0,51,0.00,,,0.00,183.0,meteohub,2013-02-18 22:17:00,
2013-02-18 17:22:00,52.7,35.1,30.33,ESE,107,0.0,8.0,51,0.00,,,0.00,148.0,meteohub,2013-02-18 22:22:00,
2013-02-18 17:27:00,52.3,34.7,30.32,ENE,70,4.0,8.0,51,0.00,,,0.00,74.0,meteohub,2013-02-18 22:27:00,
2013-02-18 17:32:00,52.2,34.5,30.32,ESE,109,1.0,8.0,51,0.00,,,0.00,53.0,meteohub,2013-02-18 22:32:00,
2013-02-18 17:37:00,52.2,34.5,30.33,East,101,0.0,8.0,51,0.00,,,0.00,46.0,meteohub,2013-02-18 22:37:00,
2013-02-18 17:42:00,52.0,34.3,30.32,SE,142,2.0,7.0,51,0.00,,,0.00,56.0,meteohub,2013-02-18 22:42:00,
2013-02-18 17:47:00,51.8,34.2,30.32,ENE,57,2.0,7.0,51,0.00,,,0.00,37.0,meteohub,2013-02-18 22:47:00,
2013-02-18 17:52:00,51.6,34.5,30.32,ESE,118,0.0,6.0,52,0.00,,,0.00,30.0,meteohub,2013-02-18 22:52:00,
2013-02-18 17:57:00,51.3,34.2,30.32,ENE,76,2.0,4.0,52,0.00,,,0.00,19.0,meteohub,2013-02-18 22:57:00,
2013-02-18 18:02:00,51.1,34.0,30.33,ENE,77,0.0,5.0,52,0.00,,,0.00,14.0,meteohub,2013-02-18 23:02:00,
2013-02-18 18:07:00,50.7,33.8,30.32,ENE,77,0.0,5.0,52,0.00,,,0.00,12.0,meteohub,2013-02-18 23:07:00,
2013-02-18 18:12:00,50.5,33.6,30.32,ENE,76,0.0,5.0,52,0.00,,,0.00,7.0,meteohub,2013-02-18 23:12:00,
2013-02-18 18:17:00,50.2,33.6,30.32,ENE,77,0.0,1.0,53,0.00,,,0.00,0.0,meteohub,2013-02-18 23:17:00,
2013-02-18 18:22:00,49.8,33.4,30.32,ENE,77,0.0,1.0,53,0.00,,,0.00,0.0,meteohub,2013-02-18 23:22:00,
2013-02-18 18:27:00,49.6,33.3,30.32,ENE,76,0.0,1.0,53,0.00,,,0.00,0.0,meteohub,2013-02-18 23:27:00,
2013-02-18 18:32:00,49.3,33.3,30.32,ENE,77,0.0,1.0,54,0.00,,,0.00,0.0,meteohub,2013-02-18 23:32:00,
2013-02-18 18:37:00,48.7,32.9,30.32,ENE,76,0.0,0.0,54,0.00,,,0.00,0.0,meteohub,2013-02-18 23:37:00,
2013-02-18 18:42:00,48.4,32.5,30.32,ENE,77,0.0,0.0,54,0.00,,,0.00,0.0,meteohub,2013-02-18 23:42:00,
2013-02-18 18:48:00,47.8,32.5,30.32,ENE,77,0.0,0.0,55,0.00,,,0.00,0.0,meteohub,2013-02-18 23:48:00,
2013-02-18 18:53:00,47.3,32.0,30.32,ENE,77,0.0,0.0,55,0.00,,,0.00,0.0,meteohub,2013-02-18 23:53:00,
2013-02-18 18:58:00,46.9,32.0,30.32,ENE,77,0.0,0.0,56,0.00,,,0.00,0.0,meteohub,2013-02-18 23:58:00,
2013-02-18 19:03:00,46.6,31.6,30.31,ENE,77,0.0,0.0,56,0.00,,,0.00,0.0,meteohub,2013-02-19 00:03:00,
2013-02-18 19:08:00,46.1,31.0,30.30,ENE,77,0.0,-999.0,57,-99.99,,,0.00,0,weatherlink.com 1.10,2013-02-19 00:08:00,
2013-02-18 19:13:00,45.9,31.5,30.31,ENE,77,0.0,0.0,57,0.00,,,0.00,0.0,meteohub,2013-02-19 00:13:00,
2013-02-18 19:18:00,45.3,30.9,30.31,ENE,77,0.0,0.0,57,0.00,,,0.00,0.0,meteohub,2013-02-19 00:18:00,
2013-02-18 19:23:00,45.0,31.1,30.31,ENE,77,0.0,0.0,58,0.00,,,0.00,0.0,meteohub,2013-02-19 00:23:00,
2013-02-18 19:28:00,44.6,30.7,30.31,ENE,76,0.0,1.0,58,0.00,,,0.00,0.0,meteohub,2013-02-19 00:28:00,
2013-02-18 19:33:00,44.2,30.7,30.30,ENE,77,0.0,1.0,59,0.00,,,0.00,0.0,meteohub,2013-02-19 00:33:00,
2013-02-18 19:38:00,44.1,30.7,30.30,ENE,77,0.0,1.0,59,0.00,,,0.00,0.0,meteohub,2013-02-19 00:38:00,
2013-02-18 19:43:00,43.7,30.7,30.30,ENE,76,0.0,0.0,60,0.00,,,0.00,0.0,meteohub,2013-02-19 00:43:00,
2013-02-18 19:48:00,43.5,30.6,30.30,ENE,77,0.0,0.0,60,0.00,,,0.00,0.0,meteohub,2013-02-19 00:48:00,
2013-02-18 19:53:00,43.3,30.4,30.30,ENE,76,0.0,0.0,60,0.00,,,0.00,0.0,meteohub,2013-02-19 00:53:00,
2013-02-18 19:58:00,43.2,30.6,30.30,ENE,77,0.0,0.0,61,0.00,,,0.00,0.0,meteohub,2013-02-19 00:58:00,
2013-02-18 20:03:00,43.0,30.4,30.29,ENE,76,0.0,0.0,61,0.00,,,0.00,0.0,meteohub,2013-02-19 01:03:00,
2013-02-18 20:08:00,42.8,30.2,30.29,ENE,77,0.0,0.0,61,0.00,,,0.00,0.0,meteohub,2013-02-19 01:08:00,
2013-02-18 20:13:00,42.4,30.0,30.29,ENE,77,0.0,0.0,61,0.00,,,0.00,0.0,meteohub,2013-02-19 01:13:00,
2013-02-18 20:18:00,42.3,30.2,30.29,ENE,77,0.0,0.0,62,0.00,,,0.00,0.0,meteohub,2013-02-19 01:18:00,
2013-02-18 20:23:00,42.3,30.2,30.29,ENE,77,0.0,0.0,62,0.00,,,0.00,0.0,meteohub,2013-02-19 01:23:00,
2013-02-18 20:28:00,42.3,30.6,30.29,ENE,77,0.0,0.0,63,0.00,,,0.00,0.0,meteohub,2013-02-19 01:28:00,
2013-02-18 20:33:00,42.1,30.4,30.29,ENE,76,0.0,0.0,63,0.00,,,0.00,0.0,meteohub,2013-02-19 01:33:00,
2013-02-18 20:38:00,41.9,30.6,30.29,ENE,77,0.0,0.0,64,0.00,,,0.00,0.0,meteohub,2013-02-19 01:38:00,
2013-02-18 20:43:00,41.5,30.2,30.29,ENE,76,0.0,0.0,64,0.00,,,0.00,0.0,meteohub,2013-02-19 01:43:00,
2013-02-18 20:48:00,41.4,30.0,30.29,ENE,76,0.0,0.0,64,0.00,,,0.00,0.0,meteohub,2013-02-19 01:48:00,
2013-02-18 20:53:00,41.2,30.4,30.28,ENE,77,0.0,0.0,65,0.00,,,0.00,0.0,meteohub,2013-02-19 01:53:00,
2013-02-18 20:58:00,41.2,30.4,30.28,ENE,76,0.0,0.0,65,0.00,,,0.00,0.0,meteohub,2013-02-19 01:58:00,
2013-02-18 21:03:00,41.2,30.4,30.28,ENE,77,0.0,0.0,65,0.00,,,0.00,0.0,meteohub,2013-02-19 02:03:00,
2013-02-18 21:08:00,41.2,30.7,30.28,ENE,77,0.0,0.0,66,0.00,,,0.00,0.0,meteohub,2013-02-19 02:08:00,
2013-02-18 21:13:00,41.0,30.6,30.27,ENE,76,0.0,0.0,66,0.00,,,0.00,0.0,meteohub,2013-02-19 02:13:00,
2013-02-18 21:18:00,40.6,30.2,30.27,ENE,77,0.0,0.0,66,0.00,,,0.00,0.0,meteohub,2013-02-19 02:18:00,
2013-02-18 21:23:00,40.6,30.2,30.27,ENE,77,0.0,0.0,66,0.00,,,0.00,0.0,meteohub,2013-02-19 02:23:00,
2013-02-18 21:28:00,40.5,30.4,30.27,ENE,76,0.0,0.0,67,0.00,,,0.00,0.0,meteohub,2013-02-19 02:28:00,
2013-02-18 21:33:00,40.3,30.2,30.27,ENE,76,0.0,0.0,67,0.00,,,0.00,0.0,meteohub,2013-02-19 02:33:00,
2013-02-18 21:38:00,40.1,30.0,30.27,ENE,76,0.0,0.0,67,0.00,,,0.00,0.0,meteohub,2013-02-19 02:38:00,
2013-02-18 21:43:00,40.3,30.6,30.27,ENE,77,0.0,0.0,68,0.00,,,0.00,0.0,meteohub,2013-02-19 02:43:00,
2013-02-18 21:48:00,40.6,30.9,30.26,ENE,76,0.0,0.0,68,0.00,,,0.00,0.0,meteohub,2013-02-19 02:48:00,
2013-02-18 21:53:00,40.6,30.9,30.26,ENE,77,0.0,1.0,68,0.00,,,0.00,0.0,meteohub,2013-02-19 02:53:00,
2013-02-18 21:59:00,40.5,31.1,30.26,ENE,77,0.0,1.0,69,0.00,,,0.00,0.0,meteohub,2013-02-19 02:59:00,
2013-02-18 22:04:00,40.3,30.9,30.26,ENE,77,0.0,1.0,69,0.00,,,0.00,0.0,meteohub,2013-02-19 03:04:00,
2013-02-18 22:09:00,40.3,31.3,30.26,ENE,77,0.0,0.0,70,0.00,,,0.00,0.0,meteohub,2013-02-19 03:09:00,
2013-02-18 22:14:00,40.3,31.3,30.26,ENE,76,0.0,0.0,70,0.00,,,0.00,0.0,meteohub,2013-02-19 03:14:00,
2013-02-18 22:19:00,40.1,31.1,30.26,ENE,76,0.0,0.0,70,0.00,,,0.00,0.0,meteohub,2013-02-19 03:19:00,
2013-02-18 22:24:00,39.9,31.3,30.26,ENE,77,0.0,0.0,71,0.00,,,0.00,0.0,meteohub,2013-02-19 03:24:00,
2013-02-18 22:29:00,39.9,31.3,30.25,ENE,77,0.0,0.0,71,0.00,,,0.00,0.0,meteohub,2013-02-19 03:29:00,
2013-02-18 22:34:00,39.9,31.3,30.25,ENE,77,0.0,0.0,71,0.00,,,0.00,0.0,meteohub,2013-02-19 03:34:00,
2013-02-18 22:39:00,39.9,31.3,30.26,ENE,77,0.0,0.0,71,0.00,,,0.00,0.0,meteohub,2013-02-19 03:39:00,
2013-02-18 22:44:00,39.7,31.5,30.26,ENE,77,0.0,0.0,72,0.00,,,0.00,0.0,meteohub,2013-02-19 03:44:00,
2013-02-18 22:49:00,39.7,31.5,30.26,ENE,77,0.0,0.0,72,0.00,,,0.00,0.0,meteohub,2013-02-19 03:49:00,
2013-02-18 22:54:00,39.7,31.5,30.25,ENE,77,0.0,0.0,72,0.00,,,0.00,0.0,meteohub,2013-02-19 03:54:00,
2013-02-18 22:59:00,39.6,31.3,30.25,ENE,77,0.0,0.0,72,0.00,,,0.00,0.0,meteohub,2013-02-19 03:59:00,
2013-02-18 23:04:00,39.4,31.5,30.25,ENE,77,0.0,0.0,73,0.00,,,0.00,0.0,meteohub,2013-02-19 04:04:00,
2013-02-18 23:09:00,39.2,31.3,30.24,ENE,77,0.0,0.0,73,0.00,,,0.00,0.0,meteohub,2013-02-19 04:09:00,
2013-02-18 23:14:00,39.0,31.1,30.25,ENE,77,0.0,0.0,73,0.00,,,0.00,0.0,meteohub,2013-02-19 04:14:00,
2013-02-18 23:19:00,38.8,30.9,30.24,ENE,77,0.0,0.0,73,0.00,,,0.00,0.0,meteohub,2013-02-19 04:19:00,
2013-02-18 23:24:00,38.8,31.3,30.24,ENE,76,0.0,0.0,74,0.00,,,0.00,0.0,meteohub,2013-02-19 04:24:00,
2013-02-18 23:29:00,38.8,31.3,30.24,ENE,77,0.0,0.0,74,0.00,,,0.00,0.0,meteohub,2013-02-19 04:29:00,
2013-02-18 23:34:00,38.8,31.3,30.24,ENE,76,0.0,0.0,74,0.00,,,0.00,0.0,meteohub,2013-02-19 04:34:00,
2013-02-18 23:39:00,38.8,31.3,30.24,ENE,77,0.0,0.0,74,0.00,,,0.00,0.0,meteohub,2013-02-19 04:39:00,
2013-02-18 23:44:00,38.8,31.6,30.24,ENE,77,0.0,0.0,75,0.00,,,0.00,0.0,meteohub,2013-02-19 04:44:00,
2013-02-18 23:50:00,38.7,31.5,30.24,ENE,77,0.0,0.0,75,0.00,,,0.00,0.0,meteohub,2013-02-19 04:50:00,
2013-02-18 23:54:00,38.7,31.5,30.23,ENE,77,0.0,0.0,75,0.00,,,0.00,0.0,meteohub,2013-02-19 04:54:00,